createdAt,value
2017-08-27T00:00:38.378Z,18.1
2017-08-27T00:01:40.815Z,18.1
2017-08-27T00:02:43.250Z,18.1
2017-08-27T00:03:45.673Z,18
2017-08-27T00:04:48.242Z,18
2017-08-27T00:05:50.673Z,18
2017-08-27T00:06:53.114Z,17.9
2017-08-27T00:07:55.542Z,17.9
2017-08-27T00:08:57.980Z,18
2017-08-27T00:10:00.494Z,18
2017-08-27T00:11:02.932Z,18
2017-08-27T00:12:05.367Z,18
2017-08-27T00:13:08.130Z,18
2017-08-27T00:14:10.906Z,18
2017-08-27T00:15:13.400Z,17.9
2017-08-27T00:16:15.832Z,18
2017-08-27T00:17:18.262Z,18
2017-08-27T00:18:20.688Z,18
2017-08-27T00:19:23.122Z,18
2017-08-27T00:20:25.656Z,18
2017-08-27T00:21:28.091Z,18
2017-08-27T00:22:30.516Z,18
2017-08-27T00:23:32.949Z,18
2017-08-27T00:24:35.393Z,18
2017-08-27T00:25:37.965Z,17.9
2017-08-27T00:26:40.396Z,17.9
2017-08-27T00:27:42.837Z,17.9
2017-08-27T00:28:45.269Z,17.9
2017-08-27T00:29:47.777Z,17.8
2017-08-27T00:30:50.266Z,17.8
2017-08-27T00:31:52.694Z,17.8
2017-08-27T00:32:55.124Z,17.8
2017-08-27T00:33:57.556Z,17.8
2017-08-27T00:35:00.101Z,17.8
2017-08-27T00:36:02.528Z,17.8
2017-08-27T00:37:04.967Z,17.8
2017-08-27T00:38:07.396Z,17.8
2017-08-27T00:39:09.839Z,17.8
2017-08-27T00:40:12.400Z,17.8
2017-08-27T00:41:14.837Z,17.8
2017-08-27T00:42:17.266Z,17.8
2017-08-27T00:43:19.703Z,17.9
2017-08-27T00:44:22.125Z,17.9
2017-08-27T00:45:24.814Z,17.8
2017-08-27T00:46:27.235Z,17.8
2017-08-27T00:47:29.831Z,17.8
2017-08-27T00:48:32.258Z,17.8
2017-08-27T00:49:34.699Z,17.8
2017-08-27T00:50:37.127Z,17.8
2017-08-27T00:51:39.561Z,17.8
2017-08-27T00:52:42.088Z,17.8
2017-08-27T00:53:44.512Z,17.8
2017-08-27T00:54:47.324Z,17.8
2017-08-27T00:55:50.095Z,17.8
2017-08-27T00:56:52.528Z,17.8
2017-08-27T00:57:54.957Z,17.8
2017-08-27T00:58:57.388Z,17.7
2017-08-27T01:00:00.085Z,17.7
2017-08-27T01:01:02.869Z,17.7
2017-08-27T01:02:05.302Z,17.7
2017-08-27T01:03:07.729Z,17.7
2017-08-27T01:04:10.164Z,17.7
2017-08-27T01:05:12.602Z,17.6
2017-08-27T01:06:15.155Z,17.6
2017-08-27T01:07:17.586Z,17.6
2017-08-27T01:08:20.000Z,17.6
2017-08-27T01:09:22.440Z,17.5
2017-08-27T01:10:24.877Z,17.5
2017-08-27T01:11:27.308Z,17.5
2017-08-27T01:12:29.841Z,17.5
2017-08-27T01:13:32.612Z,17.5
2017-08-27T01:14:35.046Z,17.5
2017-08-27T01:15:37.479Z,17.5
2017-08-27T01:16:39.901Z,17.4
2017-08-27T01:17:42.330Z,17.4
2017-08-27T01:18:44.811Z,17.4
2017-08-27T01:19:47.247Z,17.3
2017-08-27T01:20:49.684Z,17.3
2017-08-27T01:21:52.113Z,17.3
2017-08-27T01:22:54.545Z,17.3
2017-08-27T01:23:56.974Z,17.3
2017-08-27T01:24:59.455Z,17.3
2017-08-27T01:26:01.881Z,17.3
2017-08-27T01:27:04.322Z,17.3
2017-08-27T01:28:06.797Z,17.3
2017-08-27T01:29:09.226Z,17.3
2017-08-27T01:30:11.942Z,17.2
2017-08-27T01:31:14.713Z,17.2
2017-08-27T01:32:17.141Z,17.2
2017-08-27T01:33:19.573Z,17.2
2017-08-27T01:34:21.998Z,17.2
2017-08-27T01:35:24.435Z,17.2
2017-08-27T01:36:26.880Z,17.2
2017-08-27T01:37:29.310Z,17.3
2017-08-27T01:38:31.740Z,17.2
2017-08-27T01:39:34.293Z,17.2
2017-08-27T01:40:36.734Z,17.2
2017-08-27T01:41:39.185Z,17.2
2017-08-27T01:42:41.611Z,17.2
2017-08-27T01:43:44.038Z,17.2
2017-08-27T01:44:46.471Z,17.2
2017-08-27T01:45:48.904Z,17.2
2017-08-27T01:46:51.336Z,17.3
2017-08-27T01:47:53.773Z,17.3
2017-08-27T01:48:56.205Z,17.3
2017-08-27T01:49:59.003Z,17.3
2017-08-27T01:51:01.447Z,17.3
2017-08-27T01:52:03.881Z,17.3
2017-08-27T01:53:06.303Z,17.3
2017-08-27T01:54:08.736Z,17.3
2017-08-27T01:55:11.167Z,17.3
2017-08-27T01:56:13.603Z,17.3
2017-08-27T01:57:16.028Z,17.3
2017-08-27T01:58:18.804Z,17.4
2017-08-27T01:59:21.232Z,17.4
2017-08-27T02:00:23.674Z,17.3
2017-08-27T02:01:26.102Z,17.3
2017-08-27T02:02:28.533Z,17.3
2017-08-27T02:03:30.959Z,17.3
2017-08-27T02:04:33.391Z,17.3
2017-08-27T02:05:35.825Z,17.3
2017-08-27T02:06:38.264Z,17.3
2017-08-27T02:07:40.676Z,17.3
2017-08-27T02:08:43.106Z,17.2
2017-08-27T02:09:45.538Z,17.2
2017-08-27T02:10:47.970Z,17.2
2017-08-27T02:11:50.757Z,17.2
2017-08-27T02:12:53.191Z,17.2
2017-08-27T02:13:55.616Z,17.2
2017-08-27T02:14:58.051Z,17.2
2017-08-27T02:16:00.825Z,17.2
2017-08-27T02:17:03.252Z,17.1
2017-08-27T02:18:05.685Z,17.1
2017-08-27T02:19:08.124Z,17.1
2017-08-27T02:20:10.554Z,17.1
2017-08-27T02:21:12.983Z,17.1
2017-08-27T02:22:15.414Z,17.1
2017-08-27T02:23:17.847Z,17.1
2017-08-27T02:24:20.615Z,17.1
2017-08-27T02:25:23.051Z,17.1
2017-08-27T02:26:25.477Z,17.1
2017-08-27T02:27:27.912Z,17.1
2017-08-27T02:28:30.350Z,17.1
2017-08-27T02:29:32.785Z,17.1
2017-08-27T02:30:35.214Z,17.1
2017-08-27T02:31:37.994Z,17.1
2017-08-27T02:32:40.422Z,17
2017-08-27T02:33:42.851Z,17.1
2017-08-27T02:34:45.281Z,17.1
2017-08-27T02:35:47.710Z,17.1
2017-08-27T02:36:50.135Z,17
2017-08-27T02:37:52.575Z,17
2017-08-27T02:38:54.995Z,17
2017-08-27T02:39:57.429Z,17
2017-08-27T02:40:59.863Z,17
2017-08-27T02:42:02.635Z,17
2017-08-27T02:43:05.070Z,17
2017-08-27T02:44:07.501Z,17
2017-08-27T02:45:10.264Z,16.9
2017-08-27T02:46:12.697Z,16.9
2017-08-27T02:47:15.125Z,16.9
2017-08-27T02:48:17.559Z,16.9
2017-08-27T02:49:19.989Z,16.9
2017-08-27T02:50:22.422Z,16.9
2017-08-27T02:51:24.848Z,16.9
2017-08-27T02:52:27.281Z,16.8
2017-08-27T02:53:30.047Z,16.8
2017-08-27T02:54:32.485Z,16.8
2017-08-27T02:55:34.913Z,16.8
2017-08-27T02:56:37.351Z,16.8
2017-08-27T02:57:39.772Z,16.7
2017-08-27T02:58:42.205Z,16.7
2017-08-27T02:59:44.639Z,16.7
2017-08-27T03:00:47.405Z,16.7
2017-08-27T03:01:49.838Z,16.7
2017-08-27T03:02:52.268Z,16.7
2017-08-27T03:03:54.700Z,16.6
2017-08-27T03:04:57.132Z,16.6
2017-08-27T03:05:59.569Z,16.6
2017-08-27T03:07:02.342Z,16.6
2017-08-27T03:08:04.765Z,16.6
2017-08-27T03:09:07.200Z,16.6
2017-08-27T03:10:09.629Z,16.5
2017-08-27T03:11:12.419Z,16.5
2017-08-27T03:12:15.183Z,16.5
2017-08-27T03:13:17.960Z,16.5
2017-08-27T03:14:20.391Z,16.4
2017-08-27T03:15:23.156Z,16.4
2017-08-27T03:16:25.583Z,16.4
2017-08-27T03:17:28.013Z,16.4
2017-08-27T03:18:30.439Z,16.4
2017-08-27T03:19:33.214Z,16.3
2017-08-27T03:20:35.639Z,16.3
2017-08-27T03:21:38.069Z,16.3
2017-08-27T03:22:40.500Z,16.3
2017-08-27T03:23:42.930Z,16.3
2017-08-27T03:24:45.360Z,16.2
2017-08-27T03:25:47.783Z,16.3
2017-08-27T03:26:50.214Z,16.2
2017-08-27T03:27:52.638Z,16.2
2017-08-27T03:28:55.067Z,16.2
2017-08-27T03:29:57.502Z,16.2
2017-08-27T03:30:59.934Z,16.2
2017-08-27T03:32:02.721Z,16.1
2017-08-27T03:33:05.530Z,16.1
2017-08-27T03:34:08.302Z,16.1
2017-08-27T03:35:11.440Z,16.1
2017-08-27T03:36:13.866Z,16.1
2017-08-27T03:37:16.292Z,16.1
2017-08-27T03:38:18.719Z,16.1
2017-08-27T03:39:21.148Z,16.1
2017-08-27T03:40:23.572Z,16.1
2017-08-27T03:41:26.004Z,16
2017-08-27T03:42:28.437Z,16
2017-08-27T03:43:30.862Z,16
2017-08-27T03:44:33.296Z,16
2017-08-27T03:45:35.721Z,16
2017-08-27T03:46:38.146Z,16
2017-08-27T03:47:40.593Z,15.9
2017-08-27T03:48:43.016Z,15.9
2017-08-27T03:49:45.447Z,15.9
2017-08-27T03:50:47.877Z,15.9
2017-08-27T03:51:50.650Z,15.9
2017-08-27T03:52:53.086Z,15.9
2017-08-27T03:53:55.507Z,15.8
2017-08-27T03:54:57.928Z,15.8
2017-08-27T03:56:00.361Z,15.8
2017-08-27T03:57:02.791Z,15.8
2017-08-27T03:58:05.920Z,15.7
2017-08-27T03:59:08.342Z,15.7
2017-08-27T04:00:10.776Z,15.7
2017-08-27T04:01:13.208Z,15.7
2017-08-27T04:02:15.633Z,15.7
2017-08-27T04:03:18.400Z,15.7
2017-08-27T04:04:20.833Z,15.7
2017-08-27T04:05:23.252Z,15.7
2017-08-27T04:06:25.687Z,15.6
2017-08-27T04:07:28.121Z,15.6
2017-08-27T04:08:30.551Z,15.6
2017-08-27T04:09:32.984Z,15.6
2017-08-27T04:10:35.417Z,15.6
2017-08-27T04:11:37.845Z,15.6
2017-08-27T04:12:40.627Z,15.6
2017-08-27T04:13:43.052Z,15.6
2017-08-27T04:14:45.479Z,15.5
2017-08-27T04:15:47.907Z,15.5
2017-08-27T04:16:50.685Z,15.5
2017-08-27T04:17:53.108Z,15.5
2017-08-27T04:18:55.542Z,15.5
2017-08-27T04:19:57.966Z,15.4
2017-08-27T04:21:00.388Z,15.4
2017-08-27T04:22:02.815Z,15.4
2017-08-27T04:23:05.255Z,15.4
2017-08-27T04:24:07.678Z,15.4
2017-08-27T04:25:10.102Z,15.4
2017-08-27T04:26:12.875Z,15.4
2017-08-27T04:27:15.310Z,15.4
2017-08-27T04:28:18.086Z,15.4
2017-08-27T04:29:20.515Z,15.3
2017-08-27T04:30:22.932Z,15.3
2017-08-27T04:31:25.365Z,15.3
2017-08-27T04:32:27.808Z,15.3
2017-08-27T04:33:30.230Z,15.2
2017-08-27T04:34:32.662Z,15.2
2017-08-27T04:35:35.087Z,15.2
2017-08-27T04:36:37.858Z,15.2
2017-08-27T04:37:40.299Z,15.2
2017-08-27T04:38:42.726Z,15.2
2017-08-27T04:39:45.154Z,15.2
2017-08-27T04:40:47.925Z,15.1
2017-08-27T04:41:50.360Z,15.1
2017-08-27T04:42:52.791Z,15.1
2017-08-27T04:43:55.223Z,15.1
2017-08-27T04:44:57.640Z,15.1
2017-08-27T04:46:00.073Z,15.1
2017-08-27T04:47:02.508Z,15.1
2017-08-27T04:48:04.935Z,15.1
2017-08-27T04:49:07.364Z,15.1
2017-08-27T04:50:09.788Z,15.1
2017-08-27T04:51:12.220Z,15.1
2017-08-27T04:52:14.640Z,15.1
2017-08-27T04:53:17.071Z,15.1
2017-08-27T04:54:19.504Z,15.1
2017-08-27T04:55:21.924Z,15.1
2017-08-27T04:56:24.357Z,15.1
2017-08-27T04:57:26.789Z,15.1
2017-08-27T04:58:29.214Z,15.1
2017-08-27T04:59:31.647Z,15.1
2017-08-27T05:00:34.072Z,15.1
2017-08-27T05:01:36.507Z,15.1
2017-08-27T05:02:38.929Z,15.1
2017-08-27T05:03:41.362Z,15.2
2017-08-27T05:04:43.785Z,15.2
2017-08-27T05:05:46.225Z,15.2
2017-08-27T05:06:48.649Z,15.2
2017-08-27T05:07:51.072Z,15.2
2017-08-27T05:08:53.867Z,15.2
2017-08-27T05:09:56.299Z,15.2
2017-08-27T05:10:59.060Z,15.2
2017-08-27T05:12:01.502Z,15.2
2017-08-27T05:13:03.916Z,15.2
2017-08-27T05:14:06.347Z,15.2
2017-08-27T05:15:08.776Z,15.3
2017-08-27T05:16:11.205Z,15.3
2017-08-27T05:17:13.629Z,15.2
2017-08-27T05:18:16.063Z,15.2
2017-08-27T05:19:18.491Z,15.3
2017-08-27T05:20:20.916Z,15.3
2017-08-27T05:21:23.684Z,15.3
2017-08-27T05:22:26.110Z,15.3
2017-08-27T05:23:28.550Z,15.3
2017-08-27T05:24:30.973Z,15.3
2017-08-27T05:25:33.404Z,15.3
2017-08-27T05:26:35.828Z,15.3
2017-08-27T05:27:38.265Z,15.3
2017-08-27T05:28:40.694Z,15.3
2017-08-27T05:29:43.119Z,15.3
2017-08-27T05:30:45.548Z,15.3
2017-08-27T05:31:48.319Z,15.3
2017-08-27T05:32:50.749Z,15.3
2017-08-27T05:33:53.177Z,15.3
2017-08-27T05:34:55.596Z,15.4
2017-08-27T05:35:58.361Z,15.4
2017-08-27T05:37:00.799Z,15.4
2017-08-27T05:38:03.566Z,15.4
2017-08-27T05:39:05.988Z,15.4
2017-08-27T05:40:08.421Z,15.4
2017-08-27T05:41:10.853Z,15.4
2017-08-27T05:42:13.635Z,15.4
2017-08-27T05:43:16.066Z,15.4
2017-08-27T05:44:18.488Z,15.4
2017-08-27T05:45:20.918Z,15.5
2017-08-27T05:46:23.700Z,15.5
2017-08-27T05:47:26.126Z,15.5
2017-08-27T05:48:28.548Z,15.5
2017-08-27T05:49:30.974Z,15.5
2017-08-27T05:50:33.400Z,15.5
2017-08-27T05:51:35.816Z,15.5
2017-08-27T05:52:38.242Z,15.6
2017-08-27T05:53:40.683Z,15.6
2017-08-27T05:54:43.454Z,15.6
2017-08-27T05:55:45.882Z,15.6
2017-08-27T05:56:48.317Z,15.7
2017-08-27T05:57:50.742Z,15.7
2017-08-27T05:58:53.177Z,15.7
2017-08-27T05:59:55.604Z,15.7
2017-08-27T06:00:58.024Z,15.8
2017-08-27T06:02:00.451Z,15.8
2017-08-27T06:03:02.890Z,15.8
2017-08-27T06:04:05.312Z,15.8
2017-08-27T06:05:07.736Z,15.8
2017-08-27T06:06:10.167Z,15.8
2017-08-27T06:07:12.591Z,15.9
2017-08-27T06:08:15.365Z,16
2017-08-27T06:09:17.797Z,16
2017-08-27T06:10:20.218Z,16
2017-08-27T06:11:23.010Z,16.1
2017-08-27T06:12:25.779Z,16
2017-08-27T06:13:28.230Z,16.1
2017-08-27T06:14:30.660Z,16.1
2017-08-27T06:15:33.110Z,16.1
2017-08-27T06:16:35.537Z,16.2
2017-08-27T06:17:37.977Z,16.3
2017-08-27T06:18:40.410Z,16.3
2017-08-27T06:19:42.840Z,16.3
2017-08-27T06:20:45.282Z,16.3
2017-08-27T06:21:48.056Z,16.3
2017-08-27T06:22:50.834Z,16.4
2017-08-27T06:23:53.270Z,16.4
2017-08-27T06:24:56.058Z,16.3
2017-08-27T06:25:58.833Z,16.4
2017-08-27T06:27:01.267Z,16.5
2017-08-27T06:28:03.697Z,16.5
2017-08-27T06:29:06.125Z,16.5
2017-08-27T06:30:08.909Z,16.6
2017-08-27T06:31:11.359Z,16.6
2017-08-27T06:32:13.788Z,16.6
2017-08-27T06:33:16.234Z,16.6
2017-08-27T06:34:18.669Z,16.6
2017-08-27T06:35:21.129Z,16.7
2017-08-27T06:36:23.550Z,16.7
2017-08-27T06:37:25.990Z,16.8
2017-08-27T06:38:28.421Z,16.8
2017-08-27T06:39:31.220Z,16.9
2017-08-27T06:40:33.650Z,16.9
2017-08-27T06:41:36.081Z,16.9
2017-08-27T06:42:38.513Z,17
2017-08-27T06:43:40.939Z,17
2017-08-27T06:44:43.379Z,17
2017-08-27T06:45:45.815Z,17.1
2017-08-27T06:46:48.588Z,17.1
2017-08-27T06:47:51.358Z,17.1
2017-08-27T06:48:53.786Z,17.1
2017-08-27T06:49:56.228Z,17.2
2017-08-27T06:50:58.676Z,17.3
2017-08-27T06:52:01.107Z,17.3
2017-08-27T06:53:03.916Z,17.3
2017-08-27T06:54:06.346Z,17.4
2017-08-27T06:55:08.796Z,17.4
2017-08-27T06:56:11.239Z,17.5
2017-08-27T06:57:13.671Z,17.5
2017-08-27T06:58:16.430Z,17.5
2017-08-27T06:59:18.862Z,17.5
2017-08-27T07:00:21.646Z,17.6
2017-08-27T07:01:24.082Z,17.6
2017-08-27T07:02:26.521Z,17.7
2017-08-27T07:03:28.948Z,17.7
2017-08-27T07:04:31.380Z,17.8
2017-08-27T07:05:33.818Z,17.8
2017-08-27T07:06:36.256Z,17.8
2017-08-27T07:07:38.712Z,17.9
2017-08-27T07:08:41.153Z,17.9
2017-08-27T07:09:43.616Z,17.9
2017-08-27T07:10:46.050Z,18
2017-08-27T07:11:48.536Z,18
2017-08-27T07:13:35.812Z,18
2017-08-27T07:14:38.222Z,18.1
2017-08-27T07:15:40.635Z,18.1
2017-08-27T07:16:43.040Z,18.1
2017-08-27T07:17:45.464Z,18.2
2017-08-27T07:18:47.869Z,18.2
2017-08-27T07:19:50.280Z,18.2
2017-08-27T07:20:52.685Z,18.2
2017-08-27T07:21:55.097Z,18.1
2017-08-27T07:22:57.494Z,18.1
2017-08-27T07:23:59.904Z,18.1
2017-08-27T07:25:02.314Z,18.1
2017-08-27T07:26:04.716Z,18.1
2017-08-27T07:27:07.130Z,18.1
2017-08-27T07:28:09.547Z,18.1
2017-08-27T07:29:11.951Z,18.1
2017-08-27T07:30:14.360Z,18.1
2017-08-27T07:31:16.769Z,18.2
2017-08-27T07:32:19.183Z,18.2
2017-08-27T07:33:21.596Z,18.3
2017-08-27T07:34:24.334Z,18.3
2017-08-27T07:35:27.081Z,18.3
2017-08-27T07:36:29.497Z,18.4
2017-08-27T07:37:31.901Z,18.4
2017-08-27T07:38:34.315Z,18.5
2017-08-27T07:39:37.066Z,18.5
2017-08-27T07:40:39.817Z,18.4
2017-08-27T07:41:42.237Z,18.4
2017-08-27T07:42:44.650Z,18.4
2017-08-27T07:43:47.048Z,18.4
2017-08-27T07:44:49.465Z,18.4
2017-08-27T07:45:51.871Z,18.4
2017-08-27T07:46:54.280Z,18.5
2017-08-27T07:47:56.686Z,18.4
2017-08-27T07:48:59.106Z,18.4
2017-08-27T07:50:01.537Z,18.3
2017-08-27T07:51:03.933Z,18.2
2017-08-27T07:52:06.345Z,18.2
2017-08-27T07:53:08.752Z,18.3
2017-08-27T07:54:11.164Z,18.4
2017-08-27T07:55:13.568Z,18.5
2017-08-27T07:56:15.978Z,18.6
2017-08-27T07:57:18.388Z,18.6
2017-08-27T07:58:20.800Z,18.7
2017-08-27T07:59:23.209Z,18.8
2017-08-27T08:00:25.608Z,18.9
2017-08-27T08:01:28.350Z,19
2017-08-27T08:02:30.765Z,19.1
2017-08-27T08:03:33.513Z,19
2017-08-27T08:04:35.918Z,19.2
2017-08-27T08:05:38.318Z,19.4
2017-08-27T08:06:41.059Z,19.7
2017-08-27T08:07:43.476Z,19.7
2017-08-27T08:08:45.891Z,19.6
2017-08-27T08:09:48.290Z,19.7
2017-08-27T08:10:50.705Z,19.7
2017-08-27T08:11:53.118Z,19.6
2017-08-27T08:12:55.527Z,19.4
2017-08-27T08:13:57.945Z,19.6
2017-08-27T08:15:00.339Z,19.8
2017-08-27T08:16:02.747Z,19.6
2017-08-27T08:17:05.168Z,19.5
2017-08-27T08:18:07.596Z,19.4
2017-08-27T08:19:10.006Z,19.3
2017-08-27T08:20:13.103Z,19.3
2017-08-27T08:21:15.510Z,19.5
2017-08-27T08:22:17.907Z,19.7
2017-08-27T08:23:20.323Z,19.7
2017-08-27T08:24:22.742Z,19.6
2017-08-27T08:25:25.148Z,19.5
2017-08-27T08:26:27.562Z,19.6
2017-08-27T08:27:30.866Z,19.7
2017-08-27T08:28:33.632Z,19.5
2017-08-27T08:29:36.045Z,19.8
2017-08-27T08:30:38.453Z,19.8
2017-08-27T08:31:40.857Z,19.9
2017-08-27T08:32:43.608Z,20.1
2017-08-27T08:33:46.019Z,20.1
2017-08-27T08:34:48.431Z,19.9
2017-08-27T08:35:51.177Z,20
2017-08-27T08:36:53.592Z,19.9
2017-08-27T08:37:55.998Z,19.8
2017-08-27T08:38:58.410Z,19.9
2017-08-27T08:40:00.818Z,20
2017-08-27T08:41:03.571Z,20
2017-08-27T08:42:05.973Z,19.9
2017-08-27T08:43:08.378Z,19.7
2017-08-27T08:44:10.791Z,19.5
2017-08-27T08:45:13.199Z,19.6
2017-08-27T08:46:15.612Z,19.7
2017-08-27T08:47:18.023Z,19.5
2017-08-27T08:48:20.433Z,19.7
2017-08-27T08:49:22.845Z,19.9
2017-08-27T08:50:25.262Z,20
2017-08-27T08:51:27.669Z,20.3
2017-08-27T08:52:30.083Z,20.5
2017-08-27T08:53:32.836Z,20.3
2017-08-27T08:54:35.588Z,20.4
2017-08-27T08:55:38.337Z,20.5
2017-08-27T08:56:40.751Z,20.5
2017-08-27T08:57:43.149Z,20.5
2017-08-27T08:58:45.904Z,20.2
2017-08-27T08:59:48.655Z,20.3
2017-08-27T09:00:51.063Z,20.6
2017-08-27T09:01:53.475Z,20.8
2017-08-27T09:02:55.880Z,20.8
2017-08-27T09:03:58.291Z,20.9
2017-08-27T09:05:00.713Z,20.7
2017-08-27T09:06:03.119Z,20.2
2017-08-27T09:07:05.530Z,20.1
2017-08-27T09:08:07.947Z,20
2017-08-27T09:09:10.706Z,20.4
2017-08-27T09:10:13.120Z,20.7
2017-08-27T09:11:15.536Z,20.7
2017-08-27T09:12:17.944Z,20.8
2017-08-27T09:13:20.359Z,21
2017-08-27T09:14:22.771Z,21.1
2017-08-27T09:15:25.179Z,21.3
2017-08-27T09:16:27.935Z,21.5
2017-08-27T09:17:30.353Z,21.7
2017-08-27T09:18:32.772Z,21.8
2017-08-27T09:19:35.196Z,21.9
2017-08-27T09:20:37.949Z,22.1
2017-08-27T09:21:40.361Z,22.3
2017-08-27T09:22:42.769Z,22
2017-08-27T09:23:45.190Z,21.8
2017-08-27T09:24:47.609Z,22
2017-08-27T09:25:50.357Z,22.3
2017-08-27T09:26:53.107Z,22.4
2017-08-27T09:27:55.537Z,22.3
2017-08-27T09:28:58.304Z,22.1
2017-08-27T09:30:00.725Z,21.6
2017-08-27T09:31:03.144Z,21.3
2017-08-27T09:32:05.894Z,21
2017-08-27T09:33:08.316Z,20.9
2017-08-27T09:34:10.735Z,20.6
2017-08-27T09:35:13.146Z,20.6
2017-08-27T09:36:15.563Z,20.7
2017-08-27T09:37:18.313Z,20.5
2017-08-27T09:38:21.067Z,20.3
2017-08-27T09:39:23.830Z,20.3
2017-08-27T09:40:26.242Z,20.3
2017-08-27T09:41:29.009Z,20.3
2017-08-27T09:42:31.430Z,20.5
2017-08-27T09:43:33.842Z,20.5
2017-08-27T09:44:36.256Z,20.6
2017-08-27T09:45:38.665Z,20.8
2017-08-27T09:46:41.079Z,20.9
2017-08-27T09:47:43.494Z,20.8
2017-08-27T09:48:45.903Z,20.8
2017-08-27T09:49:48.325Z,20.7
2017-08-27T09:50:50.742Z,20.6
2017-08-27T09:51:53.149Z,20.5
2017-08-27T09:52:55.566Z,20.3
2017-08-27T09:53:57.980Z,20.3
2017-08-27T09:55:00.398Z,20.3
2017-08-27T09:56:02.821Z,20.1
2017-08-27T09:57:05.560Z,20.1
2017-08-27T09:58:07.974Z,20.1
2017-08-27T09:59:10.735Z,19.9
2017-08-27T10:00:13.154Z,20
2017-08-27T10:01:15.567Z,20.1
2017-08-27T10:02:17.974Z,20.3
2017-08-27T10:03:20.380Z,20.6
2017-08-27T10:04:22.801Z,20.7
2017-08-27T10:05:25.218Z,20.9
2017-08-27T10:06:27.969Z,21.1
2017-08-27T10:07:30.379Z,21.4
2017-08-27T10:08:32.798Z,21.8
2017-08-27T10:09:35.210Z,21.7
2017-08-27T10:10:37.630Z,21.5
2017-08-27T10:11:40.033Z,21.2
2017-08-27T10:12:42.448Z,21
2017-08-27T10:13:44.866Z,20.9
2017-08-27T10:14:47.284Z,20.8
2017-08-27T10:15:49.694Z,20.8
2017-08-27T10:16:52.112Z,21.1
2017-08-27T10:17:54.517Z,21.2
2017-08-27T10:18:56.929Z,21
2017-08-27T10:19:59.339Z,21
2017-08-27T10:21:01.757Z,21
2017-08-27T10:22:04.172Z,21.1
2017-08-27T10:23:06.577Z,21.2
2017-08-27T10:24:08.996Z,21.2
2017-08-27T10:25:11.406Z,21.2
2017-08-27T10:26:13.813Z,21.4
2017-08-27T10:27:16.230Z,21.6
2017-08-27T10:28:18.634Z,21.5
2017-08-27T10:29:21.384Z,21.4
2017-08-27T10:30:23.809Z,21.2
2017-08-27T10:31:26.220Z,21.2
2017-08-27T10:32:28.628Z,21.3
2017-08-27T10:33:31.045Z,21.5
2017-08-27T10:34:33.458Z,21.9
2017-08-27T10:35:35.888Z,21.8
2017-08-27T10:36:38.296Z,21.7
2017-08-27T10:37:40.704Z,21.8
2017-08-27T10:38:43.117Z,21.9
2017-08-27T10:39:45.537Z,21.8
2017-08-27T10:40:47.953Z,21.6
2017-08-27T10:41:50.369Z,21.4
2017-08-27T10:42:52.788Z,21.4
2017-08-27T10:43:55.208Z,21.3
2017-08-27T10:44:57.632Z,21.3
2017-08-27T10:46:00.041Z,21.1
2017-08-27T10:47:02.807Z,21.1
2017-08-27T10:48:05.218Z,21
2017-08-27T10:49:07.631Z,20.9
2017-08-27T10:50:10.040Z,20.8
2017-08-27T10:51:12.791Z,20.8
2017-08-27T10:52:15.209Z,20.8
2017-08-27T10:53:17.625Z,21
2017-08-27T10:54:20.032Z,21.3
2017-08-27T10:55:22.447Z,21.6
2017-08-27T10:56:24.874Z,22.1
2017-08-27T10:57:27.281Z,22.4
2017-08-27T10:58:29.693Z,22.5
2017-08-27T10:59:32.113Z,22.7
2017-08-27T11:00:34.527Z,22.8
2017-08-27T11:01:36.946Z,22.9
2017-08-27T11:02:39.362Z,23.1
2017-08-27T11:03:41.771Z,23
2017-08-27T11:04:44.182Z,23
2017-08-27T11:05:46.599Z,22.8
2017-08-27T11:06:49.017Z,22.6
2017-08-27T11:07:51.435Z,22.5
2017-08-27T11:08:53.840Z,22.4
2017-08-27T11:09:56.943Z,22.2
2017-08-27T11:10:59.365Z,22.2
2017-08-27T11:12:01.780Z,22
2017-08-27T11:13:04.537Z,21.9
2017-08-27T11:14:06.952Z,21.6
2017-08-27T11:15:09.366Z,21.6
2017-08-27T11:16:11.787Z,21.3
2017-08-27T11:17:14.538Z,21.2
2017-08-27T11:18:16.958Z,21.1
2017-08-27T11:19:19.372Z,21.2
2017-08-27T11:20:21.781Z,21.2
2017-08-27T11:21:24.554Z,21.6
2017-08-27T11:22:26.981Z,21.8
2017-08-27T11:23:29.400Z,21.9
2017-08-27T11:24:31.814Z,21.7
2017-08-27T11:25:34.904Z,21.6
2017-08-27T11:26:37.320Z,21.4
2017-08-27T11:27:40.078Z,21.4
2017-08-27T11:28:42.504Z,21.5
2017-08-27T11:29:44.910Z,21.8
2017-08-27T11:30:47.330Z,21.8
2017-08-27T11:31:50.102Z,21.9
2017-08-27T11:32:52.524Z,21.8
2017-08-27T11:33:54.933Z,22
2017-08-27T11:34:57.689Z,22.2
2017-08-27T11:36:00.152Z,22.5
2017-08-27T11:37:02.912Z,22.4
2017-08-27T11:38:05.326Z,22.3
2017-08-27T11:39:08.080Z,22.3
2017-08-27T11:40:10.497Z,22.1
2017-08-27T11:41:12.919Z,22
2017-08-27T11:42:15.336Z,21.9
2017-08-27T11:43:17.759Z,21.8
2017-08-27T11:44:20.168Z,21.7
2017-08-27T11:45:22.576Z,21.7
2017-08-27T11:46:24.992Z,21.8
2017-08-27T11:47:27.408Z,21.5
2017-08-27T11:48:29.827Z,21.4
2017-08-27T11:49:32.240Z,21.5
2017-08-27T11:50:34.659Z,21.6
2017-08-27T11:51:37.061Z,21.6
2017-08-27T11:52:39.484Z,21.8
2017-08-27T11:53:41.899Z,21.8
2017-08-27T11:54:44.318Z,21.8
2017-08-27T11:55:46.731Z,21.6
2017-08-27T11:56:49.146Z,21.7
2017-08-27T11:57:52.258Z,21.5
2017-08-27T11:58:54.678Z,21.5
2017-08-27T11:59:57.090Z,21.6
2017-08-27T12:00:59.509Z,21.4
2017-08-27T12:02:01.921Z,21.3
2017-08-27T12:03:04.338Z,21.4
2017-08-27T12:04:07.097Z,21.4
2017-08-27T12:05:09.517Z,21.3
2017-08-27T12:06:11.927Z,21.2
2017-08-27T12:07:14.712Z,21.5
2017-08-27T12:08:17.118Z,21.3
2017-08-27T12:09:19.543Z,21.4
2017-08-27T12:10:21.958Z,21.4
2017-08-27T12:11:24.718Z,21.6
2017-08-27T12:12:27.136Z,21.5
2017-08-27T12:13:29.549Z,21.3
2017-08-27T12:14:31.964Z,21.3
2017-08-27T12:15:34.381Z,21.8
2017-08-27T12:16:36.794Z,22
2017-08-27T12:17:39.224Z,22.4
2017-08-27T12:18:41.638Z,22.3
2017-08-27T12:19:44.051Z,22.2
2017-08-27T12:20:46.468Z,22.1
2017-08-27T12:21:48.883Z,21.9
2017-08-27T12:22:51.636Z,21.7
2017-08-27T12:23:54.054Z,21.6
2017-08-27T12:24:56.463Z,21.6
2017-08-27T12:25:58.881Z,22
2017-08-27T12:27:01.303Z,22.1
2017-08-27T12:28:03.720Z,22.3
2017-08-27T12:29:06.134Z,22.6
2017-08-27T12:30:08.885Z,22.9
2017-08-27T12:31:11.296Z,23.2
2017-08-27T12:32:13.718Z,23.5
2017-08-27T12:33:16.129Z,23.5
2017-08-27T12:34:18.879Z,23.6
2017-08-27T12:35:21.296Z,23.6
2017-08-27T12:36:23.717Z,23.8
2017-08-27T12:37:26.133Z,23.9
2017-08-27T12:38:28.555Z,24.1
2017-08-27T12:39:30.961Z,24.2
2017-08-27T12:40:33.377Z,24.4
2017-08-27T12:41:35.806Z,24.7
2017-08-27T12:42:38.219Z,24.8
2017-08-27T12:43:40.638Z,24.5
2017-08-27T12:44:43.061Z,24.3
2017-08-27T12:45:45.481Z,24.1
2017-08-27T12:46:47.901Z,23.9
2017-08-27T12:47:50.328Z,23.8
2017-08-27T12:48:52.759Z,23.9
2017-08-27T12:49:55.171Z,23.6
2017-08-27T12:50:57.577Z,23.6
2017-08-27T12:51:59.986Z,23.5
2017-08-27T12:53:02.767Z,23.3
2017-08-27T12:54:05.186Z,23.2
2017-08-27T12:55:07.603Z,22.9
2017-08-27T12:56:10.017Z,22.8
2017-08-27T12:57:12.780Z,23
2017-08-27T12:58:15.545Z,23.2
2017-08-27T12:59:17.961Z,23.6
2017-08-27T13:00:20.387Z,23.5
2017-08-27T13:01:22.800Z,23.7
2017-08-27T13:02:25.218Z,24
2017-08-27T13:03:27.979Z,24
2017-08-27T13:04:30.400Z,23.9
2017-08-27T13:05:32.813Z,23.9
2017-08-27T13:06:35.233Z,24
2017-08-27T13:07:37.997Z,24.1
2017-08-27T13:08:40.426Z,24.2
2017-08-27T13:09:42.842Z,24.2
2017-08-27T13:10:45.261Z,24.6
2017-08-27T13:11:47.677Z,24.8
2017-08-27T13:12:50.094Z,25
2017-08-27T13:13:52.854Z,24.6
2017-08-27T13:14:55.613Z,24.6
2017-08-27T13:15:58.178Z,24.4
2017-08-27T13:17:01.126Z,24.5
2017-08-27T13:18:03.598Z,24.6
2017-08-27T13:19:06.019Z,24.3
2017-08-27T13:20:08.442Z,24
2017-08-27T13:21:10.860Z,24
2017-08-27T13:22:13.278Z,23.8
2017-08-27T13:23:15.698Z,23.6
2017-08-27T13:24:18.117Z,23.6
2017-08-27T13:25:20.541Z,23.1
2017-08-27T13:26:22.969Z,23.1
2017-08-27T13:27:25.753Z,23
2017-08-27T13:28:28.497Z,23.1
2017-08-27T13:29:30.916Z,22.9
2017-08-27T13:30:33.337Z,22.9
2017-08-27T13:31:36.116Z,22.6
2017-08-27T13:32:38.893Z,22.6
2017-08-27T13:33:41.697Z,22.6
2017-08-27T13:34:44.082Z,22.5
2017-08-27T13:35:47.177Z,22.5
2017-08-27T13:36:49.930Z,22.5
2017-08-27T13:37:52.353Z,22.6
2017-08-27T13:38:55.118Z,22.6
2017-08-27T13:39:57.902Z,22.5
2017-08-27T13:41:00.331Z,22.5
2017-08-27T13:42:02.747Z,22.5
2017-08-27T13:43:05.164Z,22.3
2017-08-27T13:44:07.917Z,22.1
2017-08-27T13:45:10.358Z,22.2
2017-08-27T13:46:12.769Z,22
2017-08-27T13:47:15.185Z,21.9
2017-08-27T13:48:17.620Z,21.8
2017-08-27T13:49:20.032Z,21.8
2017-08-27T13:50:22.451Z,21.7
2017-08-27T13:51:24.874Z,21.6
2017-08-27T13:52:27.289Z,21.6
2017-08-27T13:53:29.710Z,21.6
2017-08-27T13:54:32.132Z,21.6
2017-08-27T13:55:34.543Z,21.5
2017-08-27T13:56:37.320Z,21.7
2017-08-27T13:57:39.733Z,21.8